Portada
METAR-TAF:

METAR-TAF

Aeroports :

Maragha, Iran

latitud: 37-20-55N, longitud: 046-07-35E, altitud: 1340 m

Observació

L'informe es va fer fa 3 hores i 5 minuts, a les 21:00 UTC
Vent 14 kt del Est
Temperatura 5°C
Humitat 70%
Pressió 1020 hPa
Visibilitat 10 km o més
Escasses núvols a una alçada de 3900 ft
Cel cobert a una alçada de 10000 ft

METAR: OITM 062100Z 09014KT 9999 FEW039 OVC100 05/M00 Q1020

Hora: 03:35 (00:05 UTC)


TAF: manca

Observacions i pronòstics meteorològics de més de 4000 aeroports (METAR i TAF).

Les estacions disponibles són els punts grocs i vermells al mapa.

Posi el ratolí al punt desitjat per veure el nom de l'estació.

Feu clic per veure les observacions i els pronòstics meteorològics.

Per canviar el mapa: feu clic els botons verds amb una creu de color negre per apropar; al botó verd amb un guió per allunyar la imatge; o en les fletxes verdes per a mapes adjacents.


METAR-TAF: